Detalii statie TARCEA AGRO TARCEA [0000197E]

Toti senzorii

Date Temperatura solului [C]Precipitatii [mm]Voltaj baterie [mV]Leaf Wetness [Min]HC Air temperature [C]HC Relative humidity [%]Punctul de roua [C]
medieminmaxsumaultimatimpmedieminmaxmediemediemin
2017-12-10 21:00:00 2.2 2.1 2.4 0 6922 -0.37 -0.56 -0.19 85.28 -2.4 -2.7
2017-12-10 22:00:00 2 2 2.2 0 6914 -0.1 -0.21 0.05 81.38 -2.8 -3.1
2017-12-10 23:00:00 2 2 2.1 0 6914 0.23 0.09 0.45 77.82 -3.1 -3.3
2017-12-11 00:00:00 1.9 1.9 2 0 6914 0.87 0.46 1.26 72.85 -3.4 -3.7
2017-12-11 01:00:00 1.9 1.8 2.1 0 6914 1.31 1.2 1.45 71.66 -3.2 -3.6
2017-12-11 02:00:00 1.8 1.8 2 0 6914 1.78 1.56 2.05 71.42 -2.9 -3.2
2017-12-11 03:00:00 1.8 1.8 1.9 0.2 6904 2.16 1.54 2.46 75.89 -1.6 -2.4
2017-12-11 04:00:00 1.8 1.8 1.9 0.4 6894 1.3 1.2 1.52 99.83 1.2 1
2017-12-11 05:00:00 1.8 1.8 2 0 6894 1.94 1.67 2.23 100 1.9 1.6
2017-12-11 06:00:00 1.9 1.8 2 0.4 6894 2.16 2.04 2.29 100 2.1 2
2017-12-11 07:00:00 2 1.9 2.1 0 6894 2.41 2.29 2.54 100 2.3 2.2
2017-12-11 08:00:00 2.1 2 2.2 0.8 6874 2.83 2.43 3.2 100 2.8 2.4
2017-12-11 09:00:00 2.2 2.2 2.3 0.4 6884 3.85 3.36 4.23 100 3.8 3.3
2017-12-11 10:00:00 2.4 2.3 2.5 0.2 6884 4.64 4.16 5.49 100 4.5 4.1
2017-12-11 11:00:00 2.5 2.4 2.7 0.2 6962 6.51 5.69 7.44 94.44 5.5 5.4
2017-12-11 12:00:00 2.8 2.6 3 0 7088 8.28 7.6 8.7 82.85 5.3 5.2
2017-12-11 13:00:00 3.1 2.9 3.4 0 7128 9.04 8.69 9.26 80.5 5.7 5.6
2017-12-11 14:00:00 3.4 3.3 3.6 0 7138 9.67 9.35 9.86 75.8 5.4 5.2
2017-12-11 15:00:00 3.7 3.6 4 0 7060 9.82 9.67 10.07 73.04 5.1 4.6
2017-12-11 16:00:00 4 3.9 4.2 0 6982 10.03 9.93 10.11 69.16 4.5 4.4
2017-12-11 17:00:00 4.1 4.1 4.3 0 6952 9.96 9.78 10.08 69.02 4.4 4.3
2017-12-11 18:00:00 4.2 4.2 4.4 0 6942 10.27 10.06 10.56 67.3 4.3 4.1
2017-12-11 19:00:00 4.4 4.3 4.6 0 6932 10.46 10.3 10.81 66.12 4.2 4
2017-12-11 20:00:00 4.5 4.4 4.6 0 6914 9.99 9.74 10.43 67.33 4.1 4
2017-12-11 21:00:00 4.6 4.6 4.8 0 6904 9.76 9.38 10.44 68.09 4 3.7
2017-12-11 22:00:00 4.7 4.5 4.8 0 6894 10.07 9.87 10.25 65.62 3.7 3.6
2017-12-11 23:00:00 4.7 4.6 4.9 0 6894 10.09 9.77 10.27 66.17 3.9 3.7
2017-12-12 00:00:00 4.8 4.8 4.9 0 6874 10.33 10.1 10.58 65.06 3.9 3.8
2017-12-12 01:00:00 4.9 4.8 5 0 6864 10.51 10.34 10.7 64.32 3.9 3.8
2017-12-12 02:00:00 5 4.9 5.2 0 6874 10.27 9.9 10.68 65.57 3.9 3.8
2017-12-12 03:00:00 5 5 5.1 0 6874 9.88 9.59 10.2 67.01 3.9 3.7
2017-12-12 04:00:00 5.1 5.1 5.2 0 6874 9.96 9.75 10.29 66.7 3.9 3.7
2017-12-12 05:00:00 5 4.9 5.2 0 6854 9.91 9.38 10.3 67.19 3.9 3.8
2017-12-12 06:00:00 5.1 5.1 5.2 0 6854 10.89 10.2 11.24 64.15 4.2 4
2017-12-12 07:00:00 5.2 5.1 5.4 0 6864 11.53 11.16 12.09 62.76 4.5 4.4
2017-12-12 08:00:00 5.3 5.3 5.5 0 6854 11.89 11.54 12.15 62.92 4.9 4.7
2017-12-12 09:00:00 5.4 5.4 5.6 0 6854 12.12 11.87 12.33 63.36 5.2 5
2017-12-12 10:00:00 5.6 5.5 5.7 0 6904 12.7 12.09 13.24 63.17 5.7 5.6
2017-12-12 11:00:00 5.7 5.6 5.9 0 6992 13.6 13.03 14.17 61.51 6.2 6
2017-12-12 12:00:00 5.9 5.8 6.2 0 7128 14.61 14.07 14.96 59.07 6.5 6.3
2017-12-12 13:00:00 6.1 6 6.4 0 7108 15.48 15.08 15.76 58.31 7.1 6.6
2017-12-12 14:00:00 6.5 6.4 6.7 0 7246 16.03 15.65 16.33 55.61 6.9 6.6
2017-12-12 15:00:00 6.7 6.7 7 0 7206 15.9 15.79 16.02 56.57 7 6.9
2017-12-12 16:00:00 7 6.9 7.1 0 7020 15.53 15.24 15.88 57.89 7 6.8
2017-12-12 17:00:00 7.2 7.1 7.3 0 6992 14.97 14.34 15.53 60.69 7.2 6.9
2017-12-12 18:00:00 7.2 7.2 7.3 0 6962 13.69 13.51 14.05 69.28 8 7.8
2017-12-12 19:00:00 7.3 7.3 7.4 0 6952 13.14 12.5 13.69 71.82 8 7.8
2017-12-12 20:00:00 7.2 7.1 7.3 0 6914 11.84 11.33 12.48 81.47 8.6 8.3